SSS Odyssey — WCZ2180 — position and weather

sailwx.info

Track history (hours):
 
Tides and Currents Weather Stations Pressure Air Temp Water Temp Dewpoint Dewpoint Depression Visibility Wind Speed Wind Dir Waves Ship Positions

SSS Odyssey

Ship's website: http://www.sssodyssey.org

Owner: Pacific Harbors Council, BSA, TACOMA, WA. More information available from US FCC via Universal Licensing System and Coast Guard Vessel Documentation Center.

Last reported at 2019-Dec-12 09:00 UTC. Time now 2019-Dec-12 09:12 UTC.
Position N 47°15' W 122°26'.

Length 22 m; draft 4 m.

Type: Ship. MMSI: 367404790.

Date/timePositionNaut miles runAvg speedWind from/ knotsBaromVisibWave heightAir tempDewpointWater temp
2019-Dec-12 09:00N 47°15' W 122°26'0 0.0
2019-Dec-12 07:30N 47°15' W 122°26'0 0.0
2019-Dec-12 06:00N 47°15' W 122°26'0 0.0
2019-Dec-12 04:30N 47°15' W 122°26'0 0.0
2019-Dec-12 02:00N 47°15' W 122°26'0 0.0
2019-Dec-12 01:30N 47°15' W 122°26'0 0.0
2019-Dec-12 00:30N 47°15' W 122°26'0 0.0
2019-Dec-11 23:56N 47°15' W 122°26'2 1.1
2019-Dec-11 22:29N 47°17' W 122°27'2 1.0
2019-Dec-11 20:59N 47°15' W 122°26'0 0.0
2019-Dec-11 19:28N 47°15' W 122°26'0 0.0
2019-Dec-11 10:59N 47°15' W 122°26'0 0.0
2019-Dec-11 08:52N 47°15' W 122°26'0 0.0
2019-Dec-11 07:27N 47°15' W 122°26'0 0.0
2019-Dec-11 05:54N 47°15' W 122°26'0 0.0
2019-Dec-11 04:30N 47°15' W 122°26'0 0.0
2019-Dec-11 03:30N 47°15' W 122°26'0 0.0
2019-Dec-11 03:00N 47°15' W 122°26'0 0.0
2019-Dec-10 23:00N 47°15' W 122°26'0 0.0
2019-Dec-10 22:00N 47°15' W 122°26'0 0.0
2019-Dec-10 20:30N 47°15' W 122°26'0 0.0
2019-Dec-10 18:30N 47°15' W 122°26'0 0.0
2019-Dec-10 16:30N 47°15' W 122°26'0 0.0
2019-Dec-10 14:29N 47°15' W 122°26'0 0.0
2019-Dec-10 12:59N 47°15' W 122°26'0 0.0
2019-Dec-10 12:29N 47°15' W 122°26'0 0.0
2019-Dec-10 11:29N 47°15' W 122°26'0 0.0
2019-Dec-10 10:10N 47°15' W 122°26'0 0.0
2019-Dec-10 09:28N 47°15' W 122°26'0 0.0
2019-Dec-10 08:58N 47°15' W 122°26'0 0.0
2019-Dec-10 06:29N 47°15' W 122°26'0 0.0
2019-Dec-10 04:29N 47°15' W 122°26'0 0.0
2019-Dec-10 03:26N 47°15' W 122°26'0 0.0
2019-Dec-10 02:56N 47°15' W 122°26'0 0.0
2019-Dec-10 01:59N 47°15' W 122°26'0 0.0
2019-Dec-09 21:59N 47°15' W 122°26'0 0.0
2019-Dec-09 20:59N 47°15' W 122°26'0 0.0
2019-Dec-09 20:29N 47°15' W 122°26'0 0.0
2019-Dec-09 19:59N 47°15' W 122°26'0 0.0
2019-Dec-09 17:59N 47°15' W 122°26'0 0.0
2019-Dec-09 07:00N 47°15' W 122°26'18 7.3
2019-Dec-09 04:30N 47°33' W 122°25'7 7.2
2019-Dec-09 03:30N 47°41' W 122°25'4 0.9
2019-Dec-08 22:29N 47°38' W 122°20'0 0.1
2019-Dec-08 20:23N 47°38' W 122°20'0 0.0
2019-Dec-08 19:59N 47°38' W 122°20'0 0.0
2019-Dec-08 18:00N 47°38' W 122°20'0 0.0
2019-Dec-08 16:59N 47°38' W 122°20'0 0.0
2019-Dec-08 12:59N 47°38' W 122°20'0 0.0
2019-Dec-08 10:59N 47°38' W 122°20'0 0.0
2019-Dec-08 09:43N 47°38' W 122°20'0 0.0
2019-Dec-08 08:58N 47°38' W 122°20'0 0.0
2019-Dec-08 03:28N 47°38' W 122°20'0 0.0
2019-Dec-08 02:55N 47°38' W 122°20'0 0.0
2019-Dec-08 02:28N 47°38' W 122°20'0 0.0
2019-Dec-08 01:25N 47°38' W 122°20'0 0.0
2019-Dec-07 23:58N 47°38' W 122°20'0 0.0
2019-Dec-07 23:28N 47°38' W 122°20'4 1.8
2019-Dec-07 21:30N 47°40' W 122°24'5 4.9
2019-Dec-07 20:30N 47°35' W 122°26'20 3.9
2019-Dec-07 15:23N 47°15' W 122°26'0 0.0
2019-Dec-07 14:11N 47°15' W 122°26'0 0.0
2019-Dec-07 13:59N 47°15' W 122°26'0 0.0
2019-Dec-07 10:30N 47°15' W 122°26'0 0.0
2019-Dec-07 09:27N 47°15' W 122°26'0 0.0
2019-Dec-07 08:12N 47°15' W 122°26'0 0.0
2019-Dec-07 07:00N 47°15' W 122°26'0 0.0
2019-Dec-07 06:30N 47°15' W 122°26'0 0.0
2019-Dec-07 04:30N 47°15' W 122°26'0 0.0
2019-Dec-07 03:00N 47°15' W 122°26'0 0.0
2019-Dec-07 00:59N 47°15' W 122°26'3 2.7
2019-Dec-07 00:00N 47°17' W 122°29'3 1.0
2019-Dec-06 21:29N 47°15' W 122°26'0 0.0
2019-Dec-06 20:56N 47°15' W 122°26'0 0.0
2019-Dec-06 19:56N 47°15' W 122°26'0 0.0
2019-Dec-06 19:29N 47°15' W 122°26'0 0.0
2019-Dec-06 17:56N 47°15' W 122°26'0 0.0
2019-Dec-06 16:59N 47°15' W 122°26'0 0.0
2019-Dec-06 15:59N 47°15' W 122°26'0 0.0
2019-Dec-06 14:26N 47°15' W 122°26'0 0.0
2019-Dec-06 13:59N 47°15' W 122°26'0 0.0
2019-Dec-06 12:56N 47°15' W 122°26'0 0.0
2019-Dec-06 12:29N 47°15' W 122°26'0 0.0
2019-Dec-06 11:59N 47°15' W 122°26'0 0.0
2019-Dec-06 10:59N 47°15' W 122°26'0 0.0
2019-Dec-06 06:59N 47°15' W 122°26'0 0.0
2019-Dec-06 06:29N 47°15' W 122°26'0 0.0
2019-Dec-06 04:23N 47°15' W 122°26'0 0.0
2019-Dec-06 01:59N 47°15' W 122°26'0 0.0
2019-Dec-06 01:29N 47°15' W 122°26'0 0.0
2019-Dec-05 22:30N 47°15' W 122°26'0 0.0
2019-Dec-05 19:28N 47°15' W 122°26'0 0.0
2019-Dec-05 18:28N 47°15' W 122°26'0 0.0
2019-Dec-05 17:28N 47°15' W 122°26'0 0.0
2019-Dec-05 16:28N 47°15' W 122°26'0 0.0
2019-Dec-05 15:28N 47°15' W 122°26'0 0.0
2019-Dec-05 13:28N 47°15' W 122°26'0 0.0
2019-Dec-05 12:49N 47°15' W 122°26'0 0.0
2019-Dec-05 08:55N 47°15' W 122°26'0 0.0
2019-Dec-05 05:58N 47°15' W 122°26'0 0.0
2019-Dec-05 05:28N 47°15' W 122°26'0 0.0
2019-Dec-05 04:58N 47°15' W 122°26'0 0.0
2019-Dec-05 01:58N 47°15' W 122°26'0 0.0
2019-Dec-05 00:59N 47°15' W 122°26'0 0.0
2019-Dec-04 18:58N 47°15' W 122°26'0 0.0
2019-Dec-04 16:58N 47°15' W 122°26'0 0.0
2019-Dec-04 11:37N 47°15' W 122°26'0 0.0
2019-Dec-04 09:28N 47°15' W 122°26'0 0.0
2019-Dec-04 08:16N 47°15' W 122°26'0 0.0
2019-Dec-04 06:28N 47°15' W 122°26'0 0.0
2019-Dec-04 05:28N 47°15' W 122°26'0 0.0
2019-Dec-04 04:58N 47°15' W 122°26'0 0.0
2019-Dec-04 03:58N 47°15' W 122°26'0 0.0
2019-Dec-04 03:28N 47°15' W 122°26'0 0.0
2019-Dec-04 02:25N 47°15' W 122°26'0 0.0
2019-Dec-04 01:58N 47°15' W 122°26'0 0.0
2019-Dec-04 00:25N 47°15' W 122°26'0 0.0
2019-Dec-03 23:28N 47°15' W 122°26'0 0.0
2019-Dec-03 21:28N 47°15' W 122°26'0 0.0
2019-Dec-03 20:58N 47°15' W 122°26'0 0.0
2019-Dec-03 20:28N 47°15' W 122°26'0 0.0
2019-Dec-03 19:56N 47°15' W 122°26'0 0.0
2019-Dec-03 16:58N 47°15' W 122°26'0 0.0
2019-Dec-03 14:59N 47°15' W 122°26'0 0.0
2019-Dec-03 13:29N 47°15' W 122°26'0 0.0
2019-Dec-03 11:29N 47°15' W 122°26'0 0.0
2019-Dec-03 09:30N 47°15' W 122°26'0 0.0
2019-Dec-03 09:00N 47°15' W 122°26'0 0.0
2019-Dec-03 08:28N 47°15' W 122°26'0 0.0
2019-Dec-03 07:27N 47°15' W 122°26'0 0.0
2019-Dec-03 06:27N 47°15' W 122°26'0 0.0
2019-Dec-03 05:30N 47°15' W 122°26'0 0.0
2019-Dec-03 04:30N 47°15' W 122°26'0 0.0
2019-Dec-03 04:00N 47°15' W 122°26'0 0.0
2019-Dec-03 03:27N 47°15' W 122°26'0 0.0
2019-Dec-03 00:30N 47°15' W 122°26'0 0.0
2019-Dec-02 23:00N 47°15' W 122°26'0 0.0
2019-Dec-02 22:30N 47°15' W 122°26'0 0.0
2019-Dec-02 21:30N 47°15' W 122°26'0 0.0
2019-Dec-02 19:29N 47°15' W 122°26'0 0.0
2019-Dec-02 18:59N 47°15' W 122°26'0 0.0
2019-Dec-02 18:29N 47°15' W 122°26'0 0.0
2019-Dec-02 17:29N 47°15' W 122°26'0 0.0
2019-Dec-02 16:56N 47°15' W 122°26'0 0.0
2019-Dec-02 15:58N 47°15' W 122°26'0 0.0
2019-Dec-02 12:58N 47°15' W 122°26'0 0.0
2019-Dec-02 11:25N 47°15' W 122°26'  
Track history (hours):
 
Tides and Currents Weather Stations Pressure Air Temp Water Temp Dewpoint Dewpoint Depression Visibility Wind Speed Wind Dir Waves Ship Positions

SSS Odyssey

Ship's website: http://www.sssodyssey.org

Owner: Pacific Harbors Council, BSA, TACOMA, WA. More information available from US FCC via Universal Licensing System and Coast Guard Vessel Documentation Center.

Last reported at 2019-Dec-12 09:00 UTC. Time now 2019-Dec-12 09:12 UTC.
Position N 47°15' W 122°26'.

Length 22 m; draft 4 m.

Type: Ship. MMSI: 367404790.

Date/timePositionNaut miles runAvg speedWind from/ knotsBaromVisibWave heightAir tempDewpointWater temp
2019-Dec-12 09:00N 47°15' W 122°26'0 0.0
2019-Dec-12 07:30N 47°15' W 122°26'0 0.0
2019-Dec-12 06:00N 47°15' W 122°26'0 0.0
2019-Dec-12 04:30N 47°15' W 122°26'0 0.0
2019-Dec-12 02:00N 47°15' W 122°26'0 0.0
2019-Dec-12 01:30N 47°15' W 122°26'0 0.0
2019-Dec-12 00:30N 47°15' W 122°26'0 0.0
2019-Dec-11 23:56N 47°15' W 122°26'2 1.1
2019-Dec-11 22:29N 47°17' W 122°27'2 1.0
2019-Dec-11 20:59N 47°15' W 122°26'0 0.0
2019-Dec-11 19:28N 47°15' W 122°26'0 0.0
2019-Dec-11 10:59N 47°15' W 122°26'0 0.0
2019-Dec-11 08:52N 47°15' W 122°26'0 0.0
2019-Dec-11 07:27N 47°15' W 122°26'0 0.0
2019-Dec-11 05:54N 47°15' W 122°26'0 0.0
2019-Dec-11 04:30N 47°15' W 122°26'0 0.0
2019-Dec-11 03:30N 47°15' W 122°26'0 0.0
2019-Dec-11 03:00N 47°15' W 122°26'0 0.0
2019-Dec-10 23:00N 47°15' W 122°26'0 0.0
2019-Dec-10 22:00N 47°15' W 122°26'0 0.0
2019-Dec-10 20:30N 47°15' W 122°26'0 0.0
2019-Dec-10 18:30N 47°15' W 122°26'0 0.0
2019-Dec-10 16:30N 47°15' W 122°26'0 0.0
2019-Dec-10 14:29N 47°15' W 122°26'0 0.0
2019-Dec-10 12:59N 47°15' W 122°26'0 0.0
2019-Dec-10 12:29N 47°15' W 122°26'0 0.0
2019-Dec-10 11:29N 47°15' W 122°26'0 0.0
2019-Dec-10 10:10N 47°15' W 122°26'0 0.0
2019-Dec-10 09:28N 47°15' W 122°26'0 0.0
2019-Dec-10 08:58N 47°15' W 122°26'0 0.0
2019-Dec-10 06:29N 47°15' W 122°26'0 0.0
2019-Dec-10 04:29N 47°15' W 122°26'0 0.0
2019-Dec-10 03:26N 47°15' W 122°26'0 0.0
2019-Dec-10 02:56N 47°15' W 122°26'0 0.0
2019-Dec-10 01:59N 47°15' W 122°26'0 0.0
2019-Dec-09 21:59N 47°15' W 122°26'0 0.0
2019-Dec-09 20:59N 47°15' W 122°26'0 0.0
2019-Dec-09 20:29N 47°15' W 122°26'0 0.0
2019-Dec-09 19:59N 47°15' W 122°26'0 0.0
2019-Dec-09 17:59N 47°15' W 122°26'0 0.0
2019-Dec-09 07:00N 47°15' W 122°26'18 7.3
2019-Dec-09 04:30N 47°33' W 122°25'7 7.2
2019-Dec-09 03:30N 47°41' W 122°25'4 0.9
2019-Dec-08 22:29N 47°38' W 122°20'0 0.1
2019-Dec-08 20:23N 47°38' W 122°20'0 0.0
2019-Dec-08 19:59N 47°38' W 122°20'0 0.0
2019-Dec-08 18:00N 47°38' W 122°20'0 0.0
2019-Dec-08 16:59N 47°38' W 122°20'0 0.0
2019-Dec-08 12:59N 47°38' W 122°20'0 0.0
2019-Dec-08 10:59N 47°38' W 122°20'0 0.0
2019-Dec-08 09:43N 47°38' W 122°20'0 0.0
2019-Dec-08 08:58N 47°38' W 122°20'0 0.0
2019-Dec-08 03:28N 47°38' W 122°20'0 0.0
2019-Dec-08 02:55N 47°38' W 122°20'0 0.0
2019-Dec-08 02:28N 47°38' W 122°20'0 0.0
2019-Dec-08 01:25N 47°38' W 122°20'0 0.0
2019-Dec-07 23:58N 47°38' W 122°20'0 0.0
2019-Dec-07 23:28N 47°38' W 122°20'4 1.8
2019-Dec-07 21:30N 47°40' W 122°24'5 4.9
2019-Dec-07 20:30N 47°35' W 122°26'20 3.9
2019-Dec-07 15:23N 47°15' W 122°26'0 0.0
2019-Dec-07 14:11N 47°15' W 122°26'0 0.0
2019-Dec-07 13:59N 47°15' W 122°26'0 0.0
2019-Dec-07 10:30N 47°15' W 122°26'0 0.0
2019-Dec-07 09:27N 47°15' W 122°26'0 0.0
2019-Dec-07 08:12N 47°15' W 122°26'0 0.0
2019-Dec-07 07:00N 47°15' W 122°26'0 0.0
2019-Dec-07 06:30N 47°15' W 122°26'0 0.0
2019-Dec-07 04:30N 47°15' W 122°26'0 0.0
2019-Dec-07 03:00N 47°15' W 122°26'0 0.0
2019-Dec-07 00:59N 47°15' W 122°26'3 2.7
2019-Dec-07 00:00N 47°17' W 122°29'3 1.0
2019-Dec-06 21:29N 47°15' W 122°26'0 0.0
2019-Dec-06 20:56N 47°15' W 122°26'0 0.0
2019-Dec-06 19:56N 47°15' W 122°26'0 0.0
2019-Dec-06 19:29N 47°15' W 122°26'0 0.0
2019-Dec-06 17:56N 47°15' W 122°26'0 0.0
2019-Dec-06 16:59N 47°15' W 122°26'0 0.0
2019-Dec-06 15:59N 47°15' W 122°26'0 0.0
2019-Dec-06 14:26N 47°15' W 122°26'0 0.0
2019-Dec-06 13:59N 47°15' W 122°26'0 0.0
2019-Dec-06 12:56N 47°15' W 122°26'0 0.0
2019-Dec-06 12:29N 47°15' W 122°26'0 0.0
2019-Dec-06 11:59N 47°15' W 122°26'0 0.0
2019-Dec-06 10:59N 47°15' W 122°26'0 0.0
2019-Dec-06 06:59N 47°15' W 122°26'0 0.0
2019-Dec-06 06:29N 47°15' W 122°26'0 0.0
2019-Dec-06 04:23N 47°15' W 122°26'0 0.0
2019-Dec-06 01:59N 47°15' W 122°26'0 0.0
2019-Dec-06 01:29N 47°15' W 122°26'0 0.0
2019-Dec-05 22:30N 47°15' W 122°26'0 0.0
2019-Dec-05 19:28N 47°15' W 122°26'0 0.0
2019-Dec-05 18:28N 47°15' W 122°26'0 0.0
2019-Dec-05 17:28N 47°15' W 122°26'0 0.0
2019-Dec-05 16:28N 47°15' W 122°26'0 0.0
2019-Dec-05 15:28N 47°15' W 122°26'0 0.0
2019-Dec-05 13:28N 47°15' W 122°26'0 0.0
2019-Dec-05 12:49N 47°15' W 122°26'0 0.0
2019-Dec-05 08:55N 47°15' W 122°26'0 0.0
2019-Dec-05 05:58N 47°15' W 122°26'0 0.0
2019-Dec-05 05:28N 47°15' W 122°26'0 0.0
2019-Dec-05 04:58N 47°15' W 122°26'0 0.0
2019-Dec-05 01:58N 47°15' W 122°26'0 0.0
2019-Dec-05 00:59N 47°15' W 122°26'0 0.0
2019-Dec-04 18:58N 47°15' W 122°26'0 0.0
2019-Dec-04 16:58N 47°15' W 122°26'0 0.0
2019-Dec-04 11:37N 47°15' W 122°26'0 0.0
2019-Dec-04 09:28N 47°15' W 122°26'0 0.0
2019-Dec-04 08:16N 47°15' W 122°26'0 0.0
2019-Dec-04 06:28N 47°15' W 122°26'0 0.0
2019-Dec-04 05:28N 47°15' W 122°26'0 0.0
2019-Dec-04 04:58N 47°15' W 122°26'0 0.0
2019-Dec-04 03:58N 47°15' W 122°26'0 0.0
2019-Dec-04 03:28N 47°15' W 122°26'0 0.0
2019-Dec-04 02:25N 47°15' W 122°26'0 0.0
2019-Dec-04 01:58N 47°15' W 122°26'0 0.0
2019-Dec-04 00:25N 47°15' W 122°26'0 0.0
2019-Dec-03 23:28N 47°15' W 122°26'0 0.0
2019-Dec-03 21:28N 47°15' W 122°26'0 0.0
2019-Dec-03 20:58N 47°15' W 122°26'0 0.0
2019-Dec-03 20:28N 47°15' W 122°26'0 0.0
2019-Dec-03 19:56N 47°15' W 122°26'0 0.0
2019-Dec-03 16:58N 47°15' W 122°26'0 0.0
2019-Dec-03 14:59N 47°15' W 122°26'0 0.0
2019-Dec-03 13:29N 47°15' W 122°26'0 0.0
2019-Dec-03 11:29N 47°15' W 122°26'0 0.0
2019-Dec-03 09:30N 47°15' W 122°26'0 0.0
2019-Dec-03 09:00N 47°15' W 122°26'0 0.0
2019-Dec-03 08:28N 47°15' W 122°26'0 0.0
2019-Dec-03 07:27N 47°15' W 122°26'0 0.0
2019-Dec-03 06:27N 47°15' W 122°26'0 0.0
2019-Dec-03 05:30N 47°15' W 122°26'0 0.0
2019-Dec-03 04:30N 47°15' W 122°26'0 0.0
2019-Dec-03 04:00N 47°15' W 122°26'0 0.0
2019-Dec-03 03:27N 47°15' W 122°26'0 0.0
2019-Dec-03 00:30N 47°15' W 122°26'0 0.0
2019-Dec-02 23:00N 47°15' W 122°26'0 0.0
2019-Dec-02 22:30N 47°15' W 122°26'0 0.0
2019-Dec-02 21:30N 47°15' W 122°26'0 0.0
2019-Dec-02 19:29N 47°15' W 122°26'0 0.0
2019-Dec-02 18:59N 47°15' W 122°26'0 0.0
2019-Dec-02 18:29N 47°15' W 122°26'0 0.0
2019-Dec-02 17:29N 47°15' W 122°26'0 0.0
2019-Dec-02 16:56N 47°15' W 122°26'0 0.0
2019-Dec-02 15:58N 47°15' W 122°26'0 0.0
2019-Dec-02 12:58N 47°15' W 122°26'0 0.0
2019-Dec-02 11:25N 47°15' W 122°26'  

Dump ship's entire track history